Time;durP1;ratioP1;P1;durP2;ratioP2;P2;SDS_P1;SDS_P2;PMS_P1;PMS_P2;Temp;Humidity;BMP_temperature;BMP_pressure;BME280_temperature;BME280_humidity;BME280_pressure;Samples;Min_cycle;Max_cycle;Signal;HPM_P1;HPM_P2
2022/04/14 00:00:44;;;;;;;0.17;0.10;;;;;;;;;;4178099;28;20060;-40
2022/04/14 00:02:45;;;;;;;0.38;0.20;;;;;;;;;;4178161;28;20569;-39
2022/04/14 00:04:46;;;;;;;0.45;0.17;;;;;;;;;;4177563;28;20091;-41
2022/04/14 00:06:47;;;;;;;0.13;0.10;;;;;;;;;;4178428;28;20103;-40
2022/04/14 00:08:51;;;;;;;0.10;0.10;;;;;;;;;;4177671;28;20060;-40
2022/04/14 00:10:52;;;;;;;0.10;0.10;;;;;;;;;;4178118;28;20416;-40
2022/04/14 00:12:53;;;;;;;0.30;0.30;;;;;;;;;;4178225;28;20102;-41
2022/04/14 00:14:55;;;;;;;0.43;0.10;;;;;;;;;;4178208;28;20102;-38
2022/04/14 00:16:56;;;;;;;0.30;0.20;;;;;;;;;;4165276;28;20058;-41
2022/04/14 00:18:57;;;;;;;0.22;0.10;;;;;;;;;;4163333;28;20405;-39
2022/04/14 00:20:59;;;;;;;0.15;0.10;;;;;;;;;;4163450;28;20456;-39
2022/04/14 00:23:02;;;;;;;0.25;0.20;;;;;;;;;;4163462;28;20107;-39
2022/04/14 00:25:04;;;;;;;0.10;0.10;;;;;;;;;;4179321;28;20056;-40
2022/04/14 00:27:05;;;;;;;0.20;0.10;;;;;;;;;;4179925;28;20433;-40
2022/04/14 00:29:06;;;;;;;0.10;0.10;;;;;;;;;;4178492;28;20596;-41
2022/04/14 00:31:08;;;;;;;0.20;0.10;;;;;;;;;;4178478;28;20475;-42
2022/04/14 00:33:09;;;;;;;0.15;0.15;;;;;;;;;;4178415;28;20057;-41
2022/04/14 00:35:11;;;;;;;0.20;0.13;;;;;;;;;;4180016;28;20049;-40
2022/04/14 00:37:13;;;;;;;0.10;0.10;;;;;;;;;;4179822;28;20107;-39
2022/04/14 00:39:15;;;;;;;0.75;0.20;;;;;;;;;;4179136;28;20098;-40
2022/04/14 00:41:17;;;;;;;0.10;0.10;;;;;;;;;;4179744;28;20053;-40
2022/04/14 00:43:20;;;;;;;0.20;0.10;;;;;;;;;;4179524;28;20103;-41
2022/04/14 00:45:21;;;;;;;0.10;0.10;;;;;;;;;;4179577;28;20095;-41
2022/04/14 00:47:22;;;;;;;0.10;0.10;;;;;;;;;;4179493;28;20253;-41
2022/04/14 00:49:24;;;;;;;0.63;0.10;;;;;;;;;;4178158;28;20087;-41
2022/04/14 00:51:25;;;;;;;0.20;0.10;;;;;;;;;;4178286;28;20056;-41
2022/04/14 00:53:26;;;;;;;0.10;0.10;;;;;;;;;;4179095;28;20126;-41
2022/04/14 00:55:27;;;;;;;0.13;0.10;;;;;;;;;;4178663;28;20407;-40
2022/04/14 00:57:28;;;;;;;0.35;0.10;;;;;;;;;;4179541;28;20488;-41
2022/04/14 00:59:30;;;;;;;0.10;0.10;;;;;;;;;;4179182;28;20103;-41
2022/04/14 01:01:31;;;;;;;0.15;0.10;;;;;;;;;;4178073;28;20061;-39
2022/04/14 01:03:33;;;;;;;0.10;0.10;;;;;;;;;;4179286;28;20057;-41
2022/04/14 01:05:35;;;;;;;0.70;0.20;;;;;;;;;;4179340;28;20053;-41
2022/04/14 01:07:37;;;;;;;0.38;0.20;;;;;;;;;;4179421;28;20049;-41
2022/04/14 01:09:38;;;;;;;0.03;0.03;;;;;;;;;;4177631;28;20516;-41
2022/04/14 01:11:40;;;;;;;0.10;0.08;;;;;;;;;;4179370;28;20061;-41
2022/04/14 01:13:41;;;;;;;0.30;0.20;;;;;;;;;;4161746;28;20053;-41
2022/04/14 01:15:46;;;;;;;0.30;0.20;;;;;;;;;;4179217;28;20060;-41
2022/04/14 01:17:47;;;;;;;0.88;0.10;;;;;;;;;;4179250;28;20064;-41
2022/04/14 01:19:49;;;;;;;0.28;0.10;;;;;;;;;;4179203;28;20455;-41
2022/04/14 01:22:00;;;;;;;0.10;0.10;;;;;;;;;;4179290;28;20102;-41
2022/04/14 01:24:02;;;;;;;0.20;0.10;;;;;;;;;;4178637;28;20076;-41
2022/04/14 01:26:03;;;;;;;0.00;0.00;;;;;;;;;;4179220;28;20049;-41
2022/04/14 01:28:05;;;;;;;0.10;0.10;;;;;;;;;;4179095;28;20516;-41
2022/04/14 01:30:07;;;;;;;0.20;0.20;;;;;;;;;;4179255;28;20059;-41
2022/04/14 01:32:09;;;;;;;0.10;0.10;;;;;;;;;;4177843;28;20052;-42
2022/04/14 01:34:10;;;;;;;0.13;0.10;;;;;;;;;;4177790;28;20056;-42
2022/04/14 01:36:11;;;;;;;0.32;0.10;;;;;;;;;;4179441;28;20101;-41
2022/04/14 01:38:13;;;;;;;0.22;0.03;;;;;;;;;;4178569;28;20106;-41
2022/04/14 01:40:15;;;;;;;0.32;0.28;;;;;;;;;;4179200;28;20052;-41
2022/04/14 01:42:17;;;;;;;0.13;0.10;;;;;;;;;;4178924;28;20061;-41
2022/04/14 01:44:18;;;;;;;0.10;0.10;;;;;;;;;;4178748;28;20045;-41
2022/04/14 01:46:19;;;;;;;0.17;0.08;;;;;;;;;;4179039;28;20100;-41
2022/04/14 01:48:20;;;;;;;0.15;0.13;;;;;;;;;;4179241;28;20447;-41
2022/04/14 01:50:22;;;;;;;0.17;0.10;;;;;;;;;;4178937;28;20102;-41
2022/04/14 01:52:23;;;;;;;0.73;0.22;;;;;;;;;;4179045;28;20056;-41
2022/04/14 01:54:24;;;;;;;0.20;0.13;;;;;;;;;;4178477;28;20052;-41
2022/04/14 01:56:26;;;;;;;0.68;0.30;;;;;;;;;;4161205;28;20521;-41
2022/04/14 01:58:27;;;;;;;0.68;0.30;;;;;;;;;;4160986;28;20076;-40
2022/04/14 02:00:28;;;;;;;0.15;0.13;;;;;;;;;;4178837;28;20060;-41
2022/04/14 02:02:30;;;;;;;0.60;0.13;;;;;;;;;;4178816;28;20103;-41
2022/04/14 02:04:31;;;;;;;0.82;0.10;;;;;;;;;;4178881;28;20091;-42
2022/04/14 02:06:32;;;;;;;0.10;0.10;;;;;;;;;;4180525;28;20056;-41
2022/04/14 02:08:33;;;;;;;0.28;0.10;;;;;;;;;;4181787;28;20056;-41
2022/04/14 02:10:34;;;;;;;1.55;0.10;;;;;;;;;;4181977;28;20485;-41
2022/04/14 02:12:35;;;;;;;0.28;0.10;;;;;;;;;;4181998;28;20052;-41
2022/04/14 02:14:37;;;;;;;0.40;0.10;;;;;;;;;;4181722;28;20104;-41
2022/04/14 02:16:39;;;;;;;0.20;0.10;;;;;;;;;;4181903;28;20057;-41
2022/04/14 02:18:40;;;;;;;0.22;0.10;;;;;;;;;;4181660;28;20057;-40
2022/04/14 02:20:41;;;;;;;0.10;0.00;;;;;;;;;;4181890;28;20230;-41
2022/04/14 02:22:43;;;;;;;0.20;0.05;;;;;;;;;;4181810;28;20056;-41
2022/04/14 02:24:44;;;;;;;0.10;0.10;;;;;;;;;;4181214;28;20427;-41
2022/04/14 02:26:45;;;;;;;0.17;0.13;;;;;;;;;;4181774;28;20053;-41
2022/04/14 02:28:47;;;;;;;0.20;0.10;;;;;;;;;;4181521;28;20499;-41
2022/04/14 02:30:48;;;;;;;0.10;0.10;;;;;;;;;;4181792;28;20053;-41
2022/04/14 02:32:49;;;;;;;0.13;0.13;;;;;;;;;;4181754;28;20565;-42
2022/04/14 02:34:51;;;;;;;0.13;0.10;;;;;;;;;;4180479;28;20065;-41
2022/04/14 02:36:53;;;;;;;0.10;0.10;;;;;;;;;;4181720;28;20451;-41
2022/04/14 02:38:54;;;;;;;0.20;0.13;;;;;;;;;;4181003;28;20464;-41
2022/04/14 02:40:55;;;;;;;0.40;0.38;;;;;;;;;;4181518;28;20152;-40
2022/04/14 02:42:59;;;;;;;0.20;0.10;;;;;;;;;;4181744;28;20673;-41
2022/04/14 02:45:00;;;;;;;0.17;0.13;;;;;;;;;;4181259;28;20558;-42
2022/04/14 02:47:01;;;;;;;0.10;0.10;;;;;;;;;;4181528;28;20079;-41
2022/04/14 02:49:03;;;;;;;0.20;0.20;;;;;;;;;;4181578;28;20098;-41
2022/04/14 02:51:04;;;;;;;0.10;0.10;;;;;;;;;;4181458;28;20408;-41
2022/04/14 02:53:05;;;;;;;0.30;0.10;;;;;;;;;;4181378;28;20504;-41
2022/04/14 02:55:07;;;;;;;0.20;0.10;;;;;;;;;;4180792;28;20053;-40
2022/04/14 02:57:08;;;;;;;0.32;0.10;;;;;;;;;;4181418;28;20094;-42
2022/04/14 02:59:10;;;;;;;0.60;0.10;;;;;;;;;;4180869;28;20503;-41
2022/04/14 03:01:11;;;;;;;0.75;0.20;;;;;;;;;;4181359;28;20053;-40
2022/04/14 03:03:12;;;;;;;0.20;0.20;;;;;;;;;;4181102;28;20130;-41
2022/04/14 03:05:14;;;;;;;0.30;0.17;;;;;;;;;;4181351;28;20049;-41
2022/04/14 03:07:15;;;;;;;0.10;0.10;;;;;;;;;;4179913;28;20459;-42
2022/04/14 03:09:17;;;;;;;0.25;0.10;;;;;;;;;;4180599;28;20123;-39
2022/04/14 03:11:18;;;;;;;0.10;0.10;;;;;;;;;;4181002;28;20420;-41
2022/04/14 03:13:20;;;;;;;0.28;0.10;;;;;;;;;;4180943;28;20118;-41
2022/04/14 03:15:21;;;;;;;0.13;0.10;;;;;;;;;;4181194;28;20472;-41
2022/04/14 03:17:22;;;;;;;0.10;0.10;;;;;;;;;;4180511;28;20110;-41
2022/04/14 03:19:24;;;;;;;0.05;0.05;;;;;;;;;;4180990;28;20122;-41
2022/04/14 03:21:26;;;;;;;0.20;0.10;;;;;;;;;;4180969;28;20049;-41
2022/04/14 03:23:27;;;;;;;0.30;0.10;;;;;;;;;;4180569;28;20127;-41
2022/04/14 03:25:28;;;;;;;0.10;0.10;;;;;;;;;;4180729;28;20053;-41
2022/04/14 03:27:29;;;;;;;0.70;0.10;;;;;;;;;;4180716;28;20056;-41
2022/04/14 03:29:32;;;;;;;0.10;0.10;;;;;;;;;;4163260;28;20099;-41
2022/04/14 03:31:34;;;;;;;0.10;0.10;;;;;;;;;;4180766;28;20060;-41
2022/04/14 03:33:35;;;;;;;0.05;0.05;;;;;;;;;;4180568;28;20305;-41
2022/04/14 03:35:36;;;;;;;0.00;0.00;;;;;;;;;;4181086;28;20049;-42
2022/04/14 03:37:38;;;;;;;0.00;0.00;;;;;;;;;;4180648;28;20064;-41
2022/04/14 03:39:39;;;;;;;0.10;0.10;;;;;;;;;;4180125;28;20516;-42
2022/04/14 03:41:40;;;;;;;0.10;0.10;;;;;;;;;;4180829;28;20053;-42
2022/04/14 03:43:42;;;;;;;0.43;0.20;;;;;;;;;;4179137;28;20126;-39
2022/04/14 03:45:43;;;;;;;0.10;0.10;;;;;;;;;;4180557;28;20552;-41
2022/04/14 03:47:44;;;;;;;0.20;0.15;;;;;;;;;;4180399;28;20409;-41
2022/04/14 03:49:45;;;;;;;0.00;0.00;;;;;;;;;;4180673;28;20079;-41
2022/04/14 03:51:46;;;;;;;0.30;0.30;;;;;;;;;;4180467;28;20122;-41
2022/04/14 03:53:47;;;;;;;0.15;0.10;;;;;;;;;;4179947;28;20053;-41
2022/04/14 03:55:49;;;;;;;0.20;0.20;;;;;;;;;;4178972;28;20102;-41
2022/04/14 03:57:50;;;;;;;0.20;0.10;;;;;;;;;;4179078;28;20497;-41
2022/04/14 03:59:51;;;;;;;0.20;0.10;;;;;;;;;;4178881;28;20057;-41
2022/04/14 04:01:52;;;;;;;0.15;0.10;;;;;;;;;;4180208;28;20558;-41
2022/04/14 04:03:53;;;;;;;0.75;0.25;;;;;;;;;;4180348;28;20057;-41
2022/04/14 04:05:55;;;;;;;0.00;0.00;;;;;;;;;;4180128;28;20057;-41
2022/04/14 04:07:56;;;;;;;0.22;0.10;;;;;;;;;;4180213;28;20451;-41
2022/04/14 04:09:57;;;;;;;0.30;0.15;;;;;;;;;;4179911;28;20106;-41
2022/04/14 04:11:59;;;;;;;0.13;0.03;;;;;;;;;;4180076;28;20118;-39
2022/04/14 04:14:00;;;;;;;0.30;0.20;;;;;;;;;;4178725;28;20057;-41
2022/04/14 04:16:02;;;;;;;0.28;0.17;;;;;;;;;;4180030;28;20056;-41
2022/04/14 04:18:07;;;;;;;0.10;0.10;;;;;;;;;;4180086;28;20053;-39
2022/04/14 04:20:09;;;;;;;0.20;0.10;;;;;;;;;;4179998;28;20420;-40
2022/04/14 04:22:10;;;;;;;0.10;0.10;;;;;;;;;;4179995;28;20052;-40
2022/04/14 04:24:11;;;;;;;0.10;0.10;;;;;;;;;;4179321;28;20102;-40
2022/04/14 04:26:13;;;;;;;0.47;0.20;;;;;;;;;;4178686;28;20053;-40
2022/04/14 04:28:14;;;;;;;0.10;0.10;;;;;;;;;;4178531;28;20455;-40
2022/04/14 04:30:15;;;;;;;0.10;0.10;;;;;;;;;;4179198;28;20102;-40
2022/04/14 04:32:16;;;;;;;0.30;0.10;;;;;;;;;;4179742;28;20052;-40
2022/04/14 04:34:17;;;;;;;0.10;0.10;;;;;;;;;;4179999;28;20053;-40
2022/04/14 04:36:19;;;;;;;0.43;0.20;;;;;;;;;;4179777;28;20114;-40
2022/04/14 04:38:20;;;;;;;0.20;0.13;;;;;;;;;;4178096;28;20107;-38
2022/04/14 04:40:21;;;;;;;0.10;0.10;;;;;;;;;;4179701;28;20322;-41
2022/04/14 04:42:23;;;;;;;0.00;0.00;;;;;;;;;;4179723;28;20515;-41
2022/04/14 04:44:24;;;;;;;0.10;0.10;;;;;;;;;;4179739;28;20098;-41
2022/04/14 04:46:25;;;;;;;0.10;0.10;;;;;;;;;;4179713;28;20489;-41
2022/04/14 04:48:26;;;;;;;0.10;0.00;;;;;;;;;;4179507;28;20106;-41
2022/04/14 04:50:28;;;;;;;0.08;0.08;;;;;;;;;;4179627;28;20451;-40
2022/04/14 04:52:29;;;;;;;0.10;0.10;;;;;;;;;;4178392;28;20060;-41
2022/04/14 04:54:30;;;;;;;0.10;0.10;;;;;;;;;;4179004;28;20484;-41
2022/04/14 04:56:32;;;;;;;0.30;0.05;;;;;;;;;;4179694;28;20080;-40
2022/04/14 04:58:33;;;;;;;0.00;0.00;;;;;;;;;;4178127;28;20057;-41
2022/04/14 05:00:34;;;;;;;0.10;0.10;;;;;;;;;;4175363;28;20113;-41
2022/04/14 05:02:35;;;;;;;0.15;0.10;;;;;;;;;;4176242;28;20114;-41
2022/04/14 05:04:36;;;;;;;0.03;0.03;;;;;;;;;;4177364;28;20060;-41
2022/04/14 05:06:38;;;;;;;0.43;0.10;;;;;;;;;;4177255;28;20487;-41
2022/04/14 05:08:39;;;;;;;0.10;0.05;;;;;;;;;;4176954;28;20061;-41
2022/04/14 05:10:41;;;;;;;0.17;0.10;;;;;;;;;;4177408;28;20515;-39
2022/04/14 05:12:43;;;;;;;0.20;0.20;;;;;;;;;;4177002;28;20065;-41
2022/04/14 05:14:44;;;;;;;0.20;0.10;;;;;;;;;;4177103;28;20102;-41
2022/04/14 05:16:46;;;;;;;0.20;0.17;;;;;;;;;;4177492;28;20489;-41
2022/04/14 05:18:48;;;;;;;0.32;0.20;;;;;;;;;;4177024;28;20057;-41
2022/04/14 05:20:49;;;;;;;0.43;0.20;;;;;;;;;;4176106;28;20053;-39
2022/04/14 05:22:50;;;;;;;0.10;0.10;;;;;;;;;;4176987;28;20464;-41
2022/04/14 05:24:51;;;;;;;0.50;0.20;;;;;;;;;;4176487;28;20056;-40
2022/04/14 05:26:53;;;;;;;0.15;0.15;;;;;;;;;;4177259;28;20118;-40
2022/04/14 05:28:54;;;;;;;0.20;0.20;;;;;;;;;;4177171;28;20091;-41
2022/04/14 05:30:55;;;;;;;0.32;0.20;;;;;;;;;;4177035;28;20515;-41
2022/04/14 05:32:56;;;;;;;0.40;0.20;;;;;;;;;;4175570;28;20107;-41
2022/04/14 05:34:57;;;;;;;0.10;0.10;;;;;;;;;;4177015;28;20081;-41
2022/04/14 05:36:59;;;;;;;0.50;0.30;;;;;;;;;;4176982;28;20060;-41
2022/04/14 05:39:00;;;;;;;0.50;0.30;;;;;;;;;;4176495;28;20053;-41
2022/04/14 05:41:01;;;;;;;0.20;0.20;;;;;;;;;;4176186;28;20102;-41
2022/04/14 05:43:02;;;;;;;0.45;0.25;;;;;;;;;;4164101;28;20112;-38
2022/04/14 05:45:04;;;;;;;0.38;0.38;;;;;;;;;;4169631;28;20057;-41
2022/04/14 05:47:05;;;;;;;0.20;0.20;;;;;;;;;;4179912;28;20064;-41
2022/04/14 05:49:06;;;;;;;0.17;0.17;;;;;;;;;;4177283;28;20493;-39
2022/04/14 05:51:07;;;;;;;0.20;0.20;;;;;;;;;;4177238;28;20083;-39
2022/04/14 05:53:09;;;;;;;0.25;0.17;;;;;;;;;;4187107;28;20155;-38
2022/04/14 05:55:10;;;;;;;0.47;0.30;;;;;;;;;;4178865;28;20050;-41
2022/04/14 05:57:13;;;;;;;0.75;0.30;;;;;;;;;;4182123;28;20099;-39
2022/04/14 05:59:17;;;;;;;0.20;0.20;;;;;;;;;;4181665;28;20139;-41
2022/04/14 06:01:18;;;;;;;0.60;0.30;;;;;;;;;;4182428;28;20052;-39
2022/04/14 06:03:20;;;;;;;0.60;0.30;;;;;;;;;;4183760;28;20052;-41
2022/04/14 06:05:21;;;;;;;0.20;0.20;;;;;;;;;;4181927;28;20046;-41
2022/04/14 06:07:22;;;;;;;0.20;0.20;;;;;;;;;;4185795;28;20098;-42
2022/04/14 06:09:24;;;;;;;1.55;0.22;;;;;;;;;;4186551;28;20098;-41
2022/04/14 06:11:25;;;;;;;0.40;0.40;;;;;;;;;;4162364;28;20123;-41
2022/04/14 06:13:26;;;;;;;0.73;0.30;;;;;;;;;;4179464;28;20462;-40
2022/04/14 06:15:29;;;;;;;0.32;0.25;;;;;;;;;;4178604;28;20074;-40
2022/04/14 06:17:30;;;;;;;0.10;0.10;;;;;;;;;;4180786;28;20060;-40
2022/04/14 06:19:31;;;;;;;0.45;0.20;;;;;;;;;;4187342;28;20134;-41
2022/04/14 06:21:32;;;;;;;0.20;0.20;;;;;;;;;;4182368;28;20061;-39
2022/04/14 06:23:33;;;;;;;0.20;0.20;;;;;;;;;;4171819;28;20056;-41
2022/04/14 06:25:34;;;;;;;0.90;0.13;;;;;;;;;;4181625;28;20051;-42
2022/04/14 06:27:36;;;;;;;0.50;0.30;;;;;;;;;;4186117;28;20060;-42
2022/04/14 06:29:37;;;;;;;0.75;0.25;;;;;;;;;;4181506;28;20049;-41
2022/04/14 06:31:38;;;;;;;0.20;0.20;;;;;;;;;;4186025;28;20520;-41
2022/04/14 06:33:39;;;;;;;0.40;0.30;;;;;;;;;;4179773;28;20098;-41
2022/04/14 06:35:40;;;;;;;0.73;0.30;;;;;;;;;;4187376;28;20491;-41
2022/04/14 06:37:42;;;;;;;0.30;0.30;;;;;;;;;;4189215;28;20048;-39
2022/04/14 06:39:43;;;;;;;0.60;0.30;;;;;;;;;;4172921;28;20103;-39
2022/04/14 06:41:44;;;;;;;1.25;0.40;;;;;;;;;;4181570;28;20571;-41
2022/04/14 06:43:49;;;;;;;0.40;0.30;;;;;;;;;;4187382;28;20052;-40
2022/04/14 06:45:51;;;;;;;0.38;0.35;;;;;;;;;;4185190;28;20052;-41
2022/04/14 06:47:52;;;;;;;0.52;0.38;;;;;;;;;;4185930;28;20110;-41
2022/04/14 06:49:54;;;;;;;0.50;0.40;;;;;;;;;;4176933;28;20344;-41
2022/04/14 06:51:55;;;;;;;0.38;0.30;;;;;;;;;;4181489;28;20056;-41
2022/04/14 06:53:56;;;;;;;0.88;0.30;;;;;;;;;;4181080;28;20075;-40
2022/04/14 06:55:57;;;;;;;2.05;0.40;;;;;;;;;;4173088;28;20099;-40
2022/04/14 06:57:59;;;;;;;0.40;0.30;;;;;;;;;;4183791;28;20057;-41
2022/04/14 07:00:00;;;;;;;0.50;0.30;;;;;;;;;;4171309;28;20065;-41
2022/04/14 07:02:01;;;;;;;1.88;0.40;;;;;;;;;;4163614;28;20065;-41
2022/04/14 07:04:02;;;;;;;2.60;0.20;;;;;;;;;;4165950;28;20056;-41
2022/04/14 07:06:03;;;;;;;1.13;0.40;;;;;;;;;;4181308;28;20496;-41
2022/04/14 07:08:04;;;;;;;0.38;0.20;;;;;;;;;;4179901;28;20098;-41
2022/04/14 07:10:06;;;;;;;0.28;0.28;;;;;;;;;;4183467;28;20122;-41
2022/04/14 07:12:08;;;;;;;0.40;0.30;;;;;;;;;;4173498;28;20146;-40
2022/04/14 07:14:09;;;;;;;0.88;0.50;;;;;;;;;;4180508;28;20074;-39
2022/04/14 07:16:10;;;;;;;0.63;0.38;;;;;;;;;;4176793;28;20107;-41
2022/04/14 07:18:11;;;;;;;0.35;0.20;;;;;;;;;;4175507;28;20489;-40
2022/04/14 07:20:13;;;;;;;0.25;0.22;;;;;;;;;;4181890;28;20115;-41
2022/04/14 07:22:18;;;;;;;0.38;0.20;;;;;;;;;;4172075;28;20061;-41
2022/04/14 07:24:19;;;;;;;0.57;0.30;;;;;;;;;;4172786;28;20122;-40
2022/04/14 07:26:20;;;;;;;1.50;0.50;;;;;;;;;;4177801;28;20053;-41
2022/04/14 07:28:21;;;;;;;0.20;0.20;;;;;;;;;;4182919;28;20519;-40
2022/04/14 07:30:26;;;;;;;0.55;0.20;;;;;;;;;;4180323;28;20060;-38
2022/04/14 07:32:40;;;;;;;0.85;0.55;;;;;;;;;;4174727;28;20394;-41
2022/04/14 07:34:41;;;;;;;0.80;0.30;;;;;;;;;;4183706;28;20054;-42
2022/04/14 07:36:42;;;;;;;0.40;0.30;;;;;;;;;;4181647;28;20049;-40
2022/04/14 07:38:43;;;;;;;0.60;0.40;;;;;;;;;;4177618;28;20060;-40
2022/04/14 07:40:45;;;;;;;0.50;0.30;;;;;;;;;;4179390;28;20097;-40
2022/04/14 07:42:47;;;;;;;0.40;0.30;;;;;;;;;;4172628;28;20052;-41
2022/04/14 07:44:49;;;;;;;0.30;0.30;;;;;;;;;;4173633;28;20056;-40
2022/04/14 07:46:51;;;;;;;0.88;0.40;;;;;;;;;;4180091;28;20574;-41
2022/04/14 07:48:52;;;;;;;1.60;0.47;;;;;;;;;;4177701;28;20069;-38
2022/04/14 07:50:53;;;;;;;1.15;0.40;;;;;;;;;;4175768;28;20049;-41
2022/04/14 07:52:56;;;;;;;1.30;0.50;;;;;;;;;;4180731;28;20056;-42
2022/04/14 07:54:57;;;;;;;1.17;0.40;;;;;;;;;;4174099;28;20095;-40
2022/04/14 07:57:00;;;;;;;0.93;0.50;;;;;;;;;;4182032;28;20110;-41
2022/04/14 07:59:02;;;;;;;1.60;0.70;;;;;;;;;;4187240;28;20154;-38
2022/04/14 08:01:03;;;;;;;0.88;0.43;;;;;;;;;;4186943;28;20060;-40
2022/04/14 08:03:06;;;;;;;0.60;0.40;;;;;;;;;;4183818;28;20099;-42
2022/04/14 08:05:08;;;;;;;1.25;0.30;;;;;;;;;;4184411;28;20124;-41
2022/04/14 08:07:09;;;;;;;1.33;0.40;;;;;;;;;;4187123;28;20053;-40
2022/04/14 08:09:10;;;;;;;0.35;0.30;;;;;;;;;;4181779;28;20072;-41
2022/04/14 08:11:13;;;;;;;1.30;0.43;;;;;;;;;;4182151;28;20387;-39
2022/04/14 08:13:15;;;;;;;0.45;0.40;;;;;;;;;;4181162;28;20060;-41
2022/04/14 08:15:16;;;;;;;0.55;0.38;;;;;;;;;;4188351;28;20044;-41
2022/04/14 08:17:17;;;;;;;0.52;0.40;;;;;;;;;;4182172;28;20056;-41
2022/04/14 08:19:18;;;;;;;1.90;0.45;;;;;;;;;;4181353;28;20103;-41
2022/04/14 08:21:20;;;;;;;1.27;0.35;;;;;;;;;;4180283;28;20458;-41
2022/04/14 08:23:21;;;;;;;2.13;0.47;;;;;;;;;;4178469;28;20491;-42
2022/04/14 08:25:33;;;;;;;1.48;0.40;;;;;;;;;;4185748;28;20071;-41
2022/04/14 08:27:34;;;;;;;0.80;0.32;;;;;;;;;;4182831;28;20052;-39
2022/04/14 08:29:35;;;;;;;0.93;0.40;;;;;;;;;;4180336;28;20480;-38
2022/04/14 08:31:38;;;;;;;0.80;0.40;;;;;;;;;;4183352;28;20102;-41
2022/04/14 08:33:40;;;;;;;1.02;0.30;;;;;;;;;;4184147;28;20067;-41
2022/04/14 08:35:42;;;;;;;0.47;0.35;;;;;;;;;;4181945;28;20573;-41
2022/04/14 08:37:43;;;;;;;0.52;0.30;;;;;;;;;;4181602;28;20053;-40
2022/04/14 08:39:45;;;;;;;0.40;0.30;;;;;;;;;;4175977;28;20057;-42
2022/04/14 08:41:53;;;;;;;0.85;0.50;;;;;;;;;;4184815;28;20436;-42
2022/04/14 08:44:01;;;;;;;0.50;0.30;;;;;;;;;;4177425;28;20497;-42
2022/04/14 08:46:03;;;;;;;0.60;0.38;;;;;;;;;;4180003;28;20098;-40
2022/04/14 08:48:05;;;;;;;0.70;0.25;;;;;;;;;;4177042;28;20072;-39
2022/04/14 08:50:12;;;;;;;0.50;0.28;;;;;;;;;;4184311;28;20052;-41
2022/04/14 08:52:15;;;;;;;1.02;0.40;;;;;;;;;;4169198;28;20048;-41
2022/04/14 08:54:19;;;;;;;0.50;0.30;;;;;;;;;;4178901;28;20471;-40
2022/04/14 08:56:21;;;;;;;0.32;0.32;;;;;;;;;;4179244;28;20064;-40
2022/04/14 08:58:26;;;;;;;0.77;0.50;;;;;;;;;;4179241;28;20064;-39
2022/04/14 09:00:27;;;;;;;4.43;0.47;;;;;;;;;;4177027;28;20114;-42
2022/04/14 09:02:28;;;;;;;0.30;0.30;;;;;;;;;;4185617;28;20102;-42
2022/04/14 09:04:30;;;;;;;1.70;0.50;;;;;;;;;;4183138;28;20056;-42
2022/04/14 09:06:32;;;;;;;0.50;0.43;;;;;;;;;;4182428;28;20563;-41
2022/04/14 09:08:33;;;;;;;1.95;0.30;;;;;;;;;;4182578;28;20488;-41
2022/04/14 09:10:36;;;;;;;0.50;0.40;;;;;;;;;;4179456;28;20053;-37
2022/04/14 09:12:37;;;;;;;0.47;0.47;;;;;;;;;;4183135;28;20064;-42
2022/04/14 09:14:39;;;;;;;1.00;0.43;;;;;;;;;;4186725;28;20116;-41
2022/04/14 09:16:40;;;;;;;1.90;0.73;;;;;;;;;;4184775;28;20049;-42
2022/04/14 09:18:41;;;;;;;1.70;0.70;;;;;;;;;;4169180;28;20061;-39
2022/04/14 09:20:43;;;;;;;0.70;0.47;;;;;;;;;;4186021;28;20052;-41
2022/04/14 09:22:44;;;;;;;1.02;0.50;;;;;;;;;;4183760;28;20090;-40
2022/04/14 09:24:54;;;;;;;0.65;0.43;;;;;;;;;;4178572;28;20094;-41
2022/04/14 09:26:55;;;;;;;0.57;0.38;;;;;;;;;;4186482;28;20076;-41
2022/04/14 09:29:06;;;;;;;0.47;0.40;;;;;;;;;;4181241;28;20393;-39
2022/04/14 09:31:08;;;;;;;0.40;0.30;;;;;;;;;;4187728;28;20472;-40
2022/04/14 09:33:16;;;;;;;0.40;0.30;;;;;;;;;;4180165;28;20057;-37
2022/04/14 09:35:19;;;;;;;2.08;0.47;;;;;;;;;;4189105;28;20496;-42
2022/04/14 09:37:23;;;;;;;0.60;0.60;;;;;;;;;;4182422;28;20068;-38
2022/04/14 09:39:24;;;;;;;0.57;0.45;;;;;;;;;;4161687;28;20107;-42
2022/04/14 09:41:33;;;;;;;2.15;0.40;;;;;;;;;;4162388;28;20441;-40
2022/04/14 09:43:34;;;;;;;0.47;0.30;;;;;;;;;;4162611;28;20053;-40
2022/04/14 09:45:36;;;;;;;0.70;0.45;;;;;;;;;;4162588;28;20053;-39
2022/04/14 09:47:39;;;;;;;0.30;0.30;;;;;;;;;;4162461;28;20088;-40
2022/04/14 09:49:41;;;;;;;0.55;0.40;;;;;;;;;;4162504;28;20115;-41
2022/04/14 09:51:44;;;;;;;0.70;0.40;;;;;;;;;;4162544;28;20064;-41
2022/04/14 09:53:45;;;;;;;0.60;0.57;;;;;;;;;;4162091;28;20057;-41
2022/04/14 09:55:49;;;;;;;0.85;0.40;;;;;;;;;;4162721;28;20053;-41
2022/04/14 09:58:09;;;;;;;0.50;0.30;;;;;;;;;;4162448;28;20123;-41
2022/04/14 10:00:12;;;;;;;0.35;0.35;;;;;;;;;;4178118;28;20061;-39
2022/04/14 10:02:17;;;;;;;0.73;0.50;;;;;;;;;;4179119;28;20052;-40
2022/04/14 10:04:31;;;;;;;0.75;0.57;;;;;;;;;;4178863;28;20492;-41
2022/04/14 10:06:32;;;;;;;0.40;0.25;;;;;;;;;;4177808;28;20080;-41
2022/04/14 10:08:51;;;;;;;0.60;0.40;;;;;;;;;;4178539;28;20106;-41
2022/04/14 10:11:06;;;;;;;0.57;0.35;;;;;;;;;;4178997;28;20053;-41
2022/04/14 10:13:09;;;;;;;2.00;0.32;;;;;;;;;;4178888;28;20057;-39
2022/04/14 10:15:10;;;;;;;0.40;0.30;;;;;;;;;;4179330;28;20099;-42
2022/04/14 10:17:12;;;;;;;0.90;0.50;;;;;;;;;;4178938;28;20068;-40
2022/04/14 10:19:13;;;;;;;1.88;0.68;;;;;;;;;;4178927;28;20111;-41
2022/04/14 10:21:15;;;;;;;0.30;0.30;;;;;;;;;;4177669;28;20102;-41
2022/04/14 10:23:16;;;;;;;0.30;0.30;;;;;;;;;;4177272;28;20574;-41
2022/04/14 10:25:17;;;;;;;0.57;0.25;;;;;;;;;;4179112;28;20059;-41
2022/04/14 10:27:19;;;;;;;1.95;0.73;;;;;;;;;;4178893;28;20409;-39
2022/04/14 10:29:20;;;;;;;1.13;0.55;;;;;;;;;;4182067;28;20432;-41
2022/04/14 10:31:21;;;;;;;0.40;0.30;;;;;;;;;;4164157;28;20053;-41
2022/04/14 10:33:23;;;;;;;1.27;0.38;;;;;;;;;;4182054;28;20099;-41
2022/04/14 10:35:30;;;;;;;1.85;0.50;;;;;;;;;;4181793;28;20349;-41
2022/04/14 10:37:36;;;;;;;0.80;0.45;;;;;;;;;;4182138;28;20447;-41
2022/04/14 10:39:45;;;;;;;0.60;0.40;;;;;;;;;;4180019;28;20440;-41
2022/04/14 10:41:49;;;;;;;0.40;0.30;;;;;;;;;;4181925;28;20057;-41
2022/04/14 10:43:50;;;;;;;0.50;0.30;;;;;;;;;;4180383;28;20566;-41
2022/04/14 10:45:53;;;;;;;0.50;0.40;;;;;;;;;;4181432;28;20052;-41
2022/04/14 10:47:58;;;;;;;0.60;0.50;;;;;;;;;;4181825;28;20073;-39
2022/04/14 10:50:00;;;;;;;4.28;0.55;;;;;;;;;;4181563;28;20455;-39
2022/04/14 10:52:24;;;;;;;0.70;0.30;;;;;;;;;;4181679;28;20049;-41
2022/04/14 10:54:25;;;;;;;0.30;0.30;;;;;;;;;;4180943;28;20075;-41
2022/04/14 10:56:40;;;;;;;0.50;0.40;;;;;;;;;;4181469;28;20441;-41
2022/04/14 10:58:43;;;;;;;0.50;0.40;;;;;;;;;;4181599;28;20431;-41
2022/04/14 11:00:44;;;;;;;1.58;0.40;;;;;;;;;;4181209;28;20417;-41
2022/04/14 11:03:01;;;;;;;0.73;0.30;;;;;;;;;;4181701;28;20075;-41
2022/04/14 11:05:02;;;;;;;0.55;0.35;;;;;;;;;;4181465;28;20143;-41
2022/04/14 11:07:35;;;;;;;0.40;0.40;;;;;;;;;;4181488;28;20057;-41
2022/04/14 11:09:42;;;;;;;0.30;0.30;;;;;;;;;;4168512;28;20107;-41
2022/04/14 11:11:59;;;;;;;0.55;0.40;;;;;;;;;;4181332;28;20060;-41
2022/04/14 11:14:00;;;;;;;0.30;0.30;;;;;;;;;;4181200;28;20083;-41
2022/04/14 11:16:40;;;;;;;0.50;0.43;;;;;;;;;;4181528;28;20107;-41
2022/04/14 11:19:24;;;;;;;0.40;0.40;;;;;;;;;;4181048;28;20106;-41
2022/04/14 11:21:33;;;;;;;0.47;0.47;;;;;;;;;;4181219;28;20049;-41
2022/04/14 11:23:35;;;;;;;0.65;0.40;;;;;;;;;;4179333;28;20048;-41
2022/04/14 11:25:49;;;;;;;0.73;0.43;;;;;;;;;;4179496;28;20402;-41
2022/04/14 11:28:14;;;;;;;0.35;0.35;;;;;;;;;;4181054;28;20500;-40
2022/04/14 11:30:37;;;;;;;0.35;0.35;;;;;;;;;;4180998;28;20049;-41
2022/04/14 11:32:40;;;;;;;0.50;0.50;;;;;;;;;;4181288;28;20049;-41
2022/04/14 11:34:42;;;;;;;0.40;0.30;;;;;;;;;;4180822;28;20057;-41
2022/04/14 11:36:46;;;;;;;0.30;0.30;;;;;;;;;;4180893;28;20122;-41
2022/04/14 11:38:57;;;;;;;0.77;0.30;;;;;;;;;;4178403;28;20087;-39
2022/04/14 11:40:58;;;;;;;1.25;0.40;;;;;;;;;;4180994;28;20053;-40
2022/04/14 11:43:00;;;;;;;0.40;0.30;;;;;;;;;;4180707;28;20447;-38
2022/04/14 11:45:02;;;;;;;0.90;0.30;;;;;;;;;;4180699;28;20110;-40
2022/04/14 11:47:05;;;;;;;0.75;0.40;;;;;;;;;;4180784;28;20049;-41
2022/04/14 11:49:08;;;;;;;0.63;0.40;;;;;;;;;;4179270;28;20083;-39
2022/04/14 11:51:10;;;;;;;0.60;0.50;;;;;;;;;;4180590;28;20118;-41
2022/04/14 11:53:11;;;;;;;0.60;0.40;;;;;;;;;;4180225;28;20048;-40
2022/04/14 11:55:33;;;;;;;0.30;0.30;;;;;;;;;;4180558;28;20063;-40
2022/04/14 11:57:37;;;;;;;0.73;0.30;;;;;;;;;;4180681;28;20186;-41
2022/04/14 11:59:46;;;;;;;0.75;0.50;;;;;;;;;;4180371;28;20080;-41
2022/04/14 12:01:49;;;;;;;0.47;0.40;;;;;;;;;;4180538;28;20064;-41
2022/04/14 12:03:50;;;;;;;0.63;0.40;;;;;;;;;;4179178;28;20060;-41
2022/04/14 12:05:52;;;;;;;0.30;0.30;;;;;;;;;;4180448;28;20049;-41
2022/04/14 12:08:05;;;;;;;0.30;0.30;;;;;;;;;;4180635;28;20083;-40
2022/04/14 12:10:08;;;;;;;0.50;0.40;;;;;;;;;;4179982;28;20057;-41
2022/04/14 12:12:12;;;;;;;0.47;0.30;;;;;;;;;;4180353;28;20459;-41
2022/04/14 12:14:14;;;;;;;0.77;0.57;;;;;;;;;;4180219;28;20056;-41
2022/04/14 12:16:15;;;;;;;0.70;0.40;;;;;;;;;;4180266;28;20053;-41